Time;durP1;ratioP1;P1;durP2;ratioP2;P2;SDS_P1;SDS_P2;PMS_P1;PMS_P2;Temp;Humidity;BMP_temperature;BMP_pressure;BME280_temperature;BME280_humidity;BME280_pressure;Samples;Min_cycle;Max_cycle;Signal;HPM_P1;HPM_P2
2022/01/07 00:03:19;;;;;;;5.85;3.75;;;;;;;1.72;100.00;94785.19;10345237;28;20054;-73
2022/01/07 00:08:20;;;;;;;5.57;3.85;;;;;;;1.62;100.00;94772.44;10361919;28;20058;-72
2022/01/07 00:13:20;;;;;;;8.07;4.32;;;;;;;1.44;100.00;94775.84;10361416;28;20056;-73
2022/01/07 00:18:22;;;;;;;5.25;4.13;;;;;;;1.30;100.00;94782.25;10360989;28;20029;-73
2022/01/07 00:23:22;;;;;;;7.00;4.40;;;;;;;1.42;100.00;94783.16;10344493;28;20053;-76
2022/01/07 00:28:23;;;;;;;4.13;3.38;;;;;;;1.70;100.00;94785.41;10362270;28;20113;-73
2022/01/07 00:33:24;;;;;;;10.68;4.53;;;;;;;1.92;100.00;94792.16;10343816;28;20566;-76
2022/01/07 00:38:24;;;;;;;7.50;4.13;;;;;;;2.12;100.00;94791.97;10343308;28;20065;-73
2022/01/07 00:43:25;;;;;;;5.68;4.00;;;;;;;2.27;100.00;94789.78;10344587;28;20030;-75
2022/01/07 00:48:25;;;;;;;9.93;4.32;;;;;;;2.24;100.00;94790.22;10346258;28;20026;-71
2022/01/07 00:53:26;;;;;;;5.28;3.40;;;;;;;2.25;100.00;94798.97;10343232;28;20092;-71
2022/01/07 00:58:26;;;;;;;5.47;3.78;;;;;;;2.16;100.00;94804.59;10343064;28;20030;-73
2022/01/07 01:03:27;;;;;;;7.55;4.10;;;;;;;2.16;100.00;94817.03;10360359;28;20520;-75
2022/01/07 01:08:28;;;;;;;5.70;4.57;;;;;;;1.65;100.00;94814.38;10342312;28;20029;-73
2022/01/07 01:13:31;;;;;;;7.07;4.25;;;;;;;1.50;100.00;94804.09;10360926;28;20040;-76
2022/01/07 01:18:31;;;;;;;6.07;3.63;;;;;;;1.73;100.00;94810.69;10341913;28;20061;-74
2022/01/07 01:23:32;;;;;;;6.72;4.50;;;;;;;1.49;100.00;94814.91;10360097;28;20474;-75
2022/01/07 01:28:33;;;;;;;6.93;4.80;;;;;;;1.45;100.00;94808.41;10359144;28;20109;-70
2022/01/07 01:33:33;;;;;;;7.80;4.25;;;;;;;1.31;100.00;94810.34;10360388;28;20025;-75
2022/01/07 01:38:34;;;;;;;6.57;4.25;;;;;;;1.28;100.00;94810.75;10342765;28;20033;-75
2022/01/07 01:43:35;;;;;;;5.90;3.22;;;;;;;1.28;100.00;94808.13;10361052;28;20025;-72
2022/01/07 01:48:35;;;;;;;7.13;4.97;;;;;;;1.24;100.00;94813.00;10342236;28;20030;-73
2022/01/07 01:53:36;;;;;;;5.28;3.33;;;;;;;1.32;100.00;94794.22;10358778;28;20026;-71
2022/01/07 01:58:36;;;;;;;10.70;4.53;;;;;;;1.62;100.00;94816.63;10358685;28;20038;-73
2022/01/07 02:03:37;;;;;;;3.35;2.50;;;;;;;1.75;100.00;94805.97;10342031;28;20129;-72
2022/01/07 02:08:37;;;;;;;6.65;3.50;;;;;;;1.96;100.00;94822.50;10358486;28;20509;-72
2022/01/07 02:13:38;;;;;;;7.03;3.75;;;;;;;2.12;100.00;94818.47;10342047;28;20113;-73
2022/01/07 02:18:38;;;;;;;7.15;3.40;;;;;;;2.01;100.00;94823.47;10341962;28;20037;-71
2022/01/07 02:23:39;;;;;;;6.18;4.03;;;;;;;2.22;100.00;94837.38;10341797;28;20494;-72
2022/01/07 02:28:42;;;;;;;5.82;4.25;;;;;;;2.08;100.00;94834.03;10341321;28;20022;-75
2022/01/07 02:33:42;;;;;;;7.05;4.00;;;;;;;1.87;100.00;94830.72;10349291;28;20022;-71
2022/01/07 02:38:43;;;;;;;7.80;4.10;;;;;;;2.04;100.00;94843.44;10366815;28;20030;-72
2022/01/07 02:43:43;;;;;;;5.13;4.13;;;;;;;1.72;100.00;94835.53;10349075;28;20432;-71
2022/01/07 02:48:43;;;;;;;6.80;4.40;;;;;;;1.66;100.00;94852.28;10348902;28;20054;-77
2022/01/07 02:53:44;;;;;;;8.20;4.47;;;;;;;1.50;100.00;94843.81;10364504;28;20071;-70
2022/01/07 02:58:44;;;;;;;5.93;3.50;;;;;;;1.86;100.00;94847.66;10348360;28;20044;-75
2022/01/07 03:03:45;;;;;;;5.68;3.63;;;;;;;1.80;100.00;94851.19;10365560;28;20053;-72
2022/01/07 03:08:46;;;;;;;5.40;3.40;;;;;;;1.68;100.00;94852.88;10349237;28;20408;-74
2022/01/07 03:13:46;;;;;;;6.13;4.10;;;;;;;1.73;100.00;94860.19;10366194;28;20033;-76
2022/01/07 03:18:47;;;;;;;7.97;4.65;;;;;;;1.84;100.00;94860.31;10365202;28;20041;-72
2022/01/07 03:23:47;;;;;;;6.80;3.47;;;;;;;1.88;100.00;94865.97;10365176;28;20141;-75
2022/01/07 03:28:48;;;;;;;7.30;4.78;;;;;;;1.90;100.00;94866.59;10330702;28;20030;-71
2022/01/07 03:33:49;;;;;;;4.43;3.03;;;;;;;2.13;100.00;94871.28;10347752;28;20534;-75
2022/01/07 03:38:49;;;;;;;7.80;3.85;;;;;;;1.97;100.00;94867.34;10338038;28;20029;-79
2022/01/07 03:43:49;;;;;;;7.13;4.00;;;;;;;1.81;100.00;94871.31;10362497;28;20022;-74
2022/01/07 03:48:50;;;;;;;6.78;3.38;;;;;;;1.85;100.00;94882.31;10363072;28;20065;-72
2022/01/07 03:53:50;;;;;;;8.55;4.63;;;;;;;1.35;100.00;94881.22;10363463;28;20518;-75
2022/01/07 03:58:51;;;;;;;11.77;4.50;;;;;;;1.13;100.00;94887.81;10362237;28;20084;-72
2022/01/07 04:03:52;;;;;;;6.88;4.43;;;;;;;1.39;100.00;94889.53;10346133;28;20068;-73
2022/01/07 04:08:52;;;;;;;9.45;5.30;;;;;;;1.30;100.00;94891.59;10363806;28;20030;-75
2022/01/07 04:13:52;;;;;;;10.45;5.05;;;;;;;1.29;100.00;94899.75;10363205;28;20034;-72
2022/01/07 04:18:53;;;;;;;5.72;3.88;;;;;;;1.63;100.00;94903.03;10362585;28;20079;-71
2022/01/07 04:23:53;;;;;;;11.65;5.15;;;;;;;1.75;100.00;94909.28;10344777;28;20106;-72
2022/01/07 04:28:54;;;;;;;9.43;4.75;;;;;;;1.66;100.00;94914.03;10344399;28;20045;-74
2022/01/07 04:33:54;;;;;;;6.97;4.15;;;;;;;1.52;100.00;94926.53;10343844;28;20036;-73
2022/01/07 04:38:55;;;;;;;9.73;5.25;;;;;;;1.55;100.00;94914.72;10343919;28;20109;-73
2022/01/07 04:43:55;;;;;;;7.80;4.72;;;;;;;1.48;100.00;94913.91;10344138;28;20443;-72
2022/01/07 04:48:57;;;;;;;9.80;4.20;;;;;;;1.52;100.00;94923.91;10343744;28;20487;-75
2022/01/07 04:53:58;;;;;;;9.25;5.18;;;;;;;1.28;100.00;94929.91;10358038;28;20058;-73
2022/01/07 04:58:59;;;;;;;9.25;5.15;;;;;;;1.23;100.00;94933.19;10314891;28;20467;-72
2022/01/07 05:03:59;;;;;;;10.93;5.82;;;;;;;1.02;100.00;94931.63;10317072;28;20078;-72
2022/01/07 05:09:00;;;;;;;9.88;6.03;;;;;;;0.96;100.00;94932.44;10342986;28;20033;-77
2022/01/07 05:14:00;;;;;;;10.18;5.68;;;;;;;0.84;100.00;94942.88;10343010;28;20099;-76
2022/01/07 05:19:01;;;;;;;9.18;5.07;;;;;;;0.86;100.00;94946.13;10360526;28;20111;-74
2022/01/07 05:24:02;;;;;;;10.77;5.50;;;;;;;0.77;100.00;94937.59;10342695;28;20022;-74
2022/01/07 05:29:03;;;;;;;8.43;5.70;;;;;;;0.72;100.00;94942.69;10360200;28;20495;-76
2022/01/07 05:34:04;;;;;;;11.45;6.13;;;;;;;0.70;100.00;94942.09;10360357;28;20026;-78
2022/01/07 05:39:05;;;;;;;10.07;5.65;;;;;;;0.78;100.00;94948.97;10342550;28;20029;-74
2022/01/07 05:44:06;;;;;;;10.65;5.82;;;;;;;0.77;100.00;94944.72;10359294;28;20022;-76
2022/01/07 05:49:06;;;;;;;11.07;5.93;;;;;;;0.75;100.00;94941.47;10342314;28;20360;-76
2022/01/07 05:54:08;;;;;;;10.05;5.95;;;;;;;0.72;100.00;94952.47;10342514;28;20061;-81
2022/01/07 05:59:08;;;;;;;10.70;5.45;;;;;;;0.77;100.00;94966.69;10359888;28;20073;-76
2022/01/07 06:04:09;;;;;;;9.85;5.50;;;;;;;0.81;100.00;94967.91;10316220;28;20522;-74
2022/01/07 06:09:09;;;;;;;12.68;6.63;;;;;;;1.00;100.00;94970.72;10366533;28;20065;-74
2022/01/07 06:14:10;;;;;;;13.02;6.07;;;;;;;1.01;100.00;94970.50;10349090;28;20036;-74
2022/01/07 06:19:10;;;;;;;13.48;6.40;;;;;;;0.99;100.00;94974.38;10365670;28;20109;-79
2022/01/07 06:24:11;;;;;;;12.90;6.72;;;;;;;0.92;100.00;94986.81;10352436;28;20498;-74
2022/01/07 06:29:11;;;;;;;11.88;6.57;;;;;;;1.06;100.00;94996.38;10349121;28;20048;-78
2022/01/07 06:34:12;;;;;;;13.65;7.40;;;;;;;1.17;100.00;94982.50;10348169;28;20022;-75
2022/01/07 06:39:12;;;;;;;14.20;8.15;;;;;;;1.08;100.00;94993.50;10348715;28;20459;-75
2022/01/07 06:44:13;;;;;;;14.82;7.68;;;;;;;1.03;100.00;94991.47;10365735;28;20033;-73
2022/01/07 06:49:14;;;;;;;12.23;7.75;;;;;;;1.15;100.00;94995.09;10347762;28;20581;-75
2022/01/07 06:54:14;;;;;;;12.88;7.78;;;;;;;1.18;100.00;94994.69;10348833;28;20025;-76
2022/01/07 06:59:15;;;;;;;13.25;7.57;;;;;;;1.30;100.00;94996.72;10347532;28;20022;-74
2022/01/07 07:04:16;;;;;;;17.73;8.43;;;;;;;1.48;100.00;94994.19;10364744;28;20396;-75
2022/01/07 07:09:18;;;;;;;12.63;7.75;;;;;;;2.03;100.00;94998.22;10347728;28;20030;-74
2022/01/07 07:14:18;;;;;;;13.60;7.70;;;;;;;2.56;100.00;94997.03;10347837;28;20143;-74
2022/01/07 07:19:19;;;;;;;15.18;7.65;;;;;;;2.28;100.00;94992.97;10362444;28;20026;-78
2022/01/07 07:24:19;;;;;;;16.70;8.70;;;;;;;2.61;100.00;94993.72;10346577;28;20389;-74
2022/01/07 07:29:20;;;;;;;15.20;9.88;;;;;;;2.75;100.00;95000.56;10347394;28;20458;-79
2022/01/07 07:39:42;;;;;;;20.88;9.70;;;;;;;3.37;100.00;95003.22;10323600;28;20033;-75
2022/01/07 07:44:42;;;;;;;17.95;8.65;;;;;;;3.53;100.00;95004.50;10346025;28;20033;-74
2022/01/07 07:49:42;;;;;;;14.13;6.90;;;;;;;3.57;100.00;95005.66;10361996;28;20037;-75
2022/01/07 07:54:43;;;;;;;18.42;8.55;;;;;;;3.70;100.00;95003.91;10345246;28;20022;-74
2022/01/07 07:59:43;;;;;;;22.08;8.90;;;;;;;3.78;100.00;95010.75;10345007;28;20504;-75
2022/01/07 08:04:44;;;;;;;19.80;8.55;;;;;;;3.91;100.00;95013.25;10345097;28;20045;-79
2022/01/07 08:09:46;;;;;;;13.25;8.13;;;;;;;3.99;100.00;95010.28;10361992;28;20377;-75
2022/01/07 08:20:06;;;;;;;19.33;9.70;;;;;;;4.48;100.00;95009.38;10362466;28;20033;-76
2022/01/07 08:25:07;;;;;;;17.95;9.40;;;;;;;4.00;100.00;95003.91;10362493;28;20037;-82
2022/01/07 08:30:15;;;;;;;22.70;10.18;;;;;;;4.20;100.00;94998.31;10349176;28;20540;-75
2022/01/07 08:35:16;;;;;;;21.15;9.15;;;;;;;4.41;100.00;94997.00;10332116;28;20054;-75
2022/01/07 08:40:16;;;;;;;14.32;7.72;;;;;;;4.48;100.00;94994.22;10349378;28;20120;-74
2022/01/07 08:45:17;;;;;;;15.32;8.93;;;;;;;4.47;100.00;94987.28;10346456;28;20068;-74
2022/01/07 08:50:17;;;;;;;17.85;8.20;;;;;;;4.72;100.00;94976.44;10343084;28;20036;-75
2022/01/07 08:55:18;;;;;;;16.35;8.73;;;;;;;4.57;100.00;94979.53;10343620;28;20034;-78
2022/01/07 09:00:19;;;;;;;16.38;7.45;;;;;;;3.77;100.00;94983.34;10345825;28;20113;-74
2022/01/07 09:05:19;;;;;;;11.20;5.82;;;;;;;3.58;100.00;94980.69;10362667;28;20045;-73
2022/01/07 09:10:20;;;;;;;13.27;6.53;;;;;;;3.49;100.00;94976.75;10342944;28;20026;-75
2022/01/07 09:15:21;;;;;;;17.23;8.48;;;;;;;3.29;100.00;94968.97;10343468;28;20036;-79
2022/01/07 09:20:22;;;;;;;17.38;8.80;;;;;;;3.06;100.00;94973.09;10342110;28;20464;-74
2022/01/07 09:25:22;;;;;;;24.17;9.82;;;;;;;2.95;100.00;94965.06;10341878;28;20579;-75
2022/01/07 09:30:23;;;;;;;17.23;8.55;;;;;;;3.37;100.00;94957.25;10359801;28;20022;-79
2022/01/07 09:35:24;;;;;;;17.88;8.18;;;;;;;3.66;100.00;94954.88;10342631;28;20494;-75
2022/01/07 09:40:24;;;;;;;14.40;7.78;;;;;;;4.04;100.00;94943.91;10344439;28;20022;-73
2022/01/07 09:45:26;;;;;;;11.95;7.13;;;;;;;4.27;100.00;94943.16;10367913;28;20484;-79
2022/01/07 09:50:28;;;;;;;15.95;8.00;;;;;;;4.28;100.00;94941.31;10368153;28;20040;-80
2022/01/07 09:55:28;;;;;;;11.43;5.57;;;;;;;4.26;100.00;94936.22;10333929;28;20124;-79
2022/01/07 10:00:40;;;;;;;18.75;8.23;;;;;;;4.43;100.00;94931.03;10350024;28;20030;-74
2022/01/07 10:05:44;;;;;;;16.75;7.32;;;;;;;4.66;100.00;94926.78;10333047;28;20050;-75
2022/01/07 10:10:45;;;;;;;13.50;7.10;;;;;;;4.99;100.00;94924.56;10348819;28;20030;-74
2022/01/07 10:15:46;;;;;;;16.23;7.63;;;;;;;4.84;100.00;94933.81;10349054;28;20026;-79
2022/01/07 10:20:47;;;;;;;18.98;9.02;;;;;;;4.74;100.00;94918.44;10366339;28;20520;-75
2022/01/07 10:25:48;;;;;;;18.25;7.88;;;;;;;5.06;100.00;94927.91;10366732;28;20034;-76
2022/01/07 10:30:54;;;;;;;15.90;7.80;;;;;;;4.78;100.00;94922.25;10348336;28;20026;-75
2022/01/07 10:36:14;;;;;;;20.30;9.10;;;;;;;4.60;100.00;94901.06;10365928;28;20117;-79
2022/01/07 10:41:14;;;;;;;24.33;9.38;;;;;;;4.65;100.00;94897.72;10348383;28;20034;-78
2022/01/07 10:46:15;;;;;;;16.50;8.75;;;;;;;4.31;100.00;94894.81;10365780;28;20025;-79
2022/01/07 10:51:19;;;;;;;16.38;8.20;;;;;;;4.74;100.00;94896.34;10347108;28;20028;-74
2022/01/07 10:56:21;;;;;;;20.98;8.35;;;;;;;4.96;100.00;94896.56;10347122;28;20399;-76
2022/01/07 11:01:22;;;;;;;18.55;8.90;;;;;;;5.00;100.00;94894.25;10347222;28;20030;-74
2022/01/07 11:06:23;;;;;;;16.60;8.23;;;;;;;5.20;100.00;94881.31;10363096;28;20041;-75
2022/01/07 11:11:27;;;;;;;16.25;7.22;;;;;;;5.22;100.00;94876.59;10347523;28;20695;-76
2022/01/07 11:16:28;;;;;;;21.70;8.88;;;;;;;5.18;100.00;94872.78;10346592;28;20025;-74
2022/01/07 11:21:29;;;;;;;16.52;6.55;;;;;;;5.19;100.00;94874.41;10363532;28;20528;-75
2022/01/07 11:26:29;;;;;;;15.10;7.70;;;;;;;5.20;100.00;94865.34;10347142;28;20481;-80
2022/01/07 11:31:30;;;;;;;19.58;7.53;;;;;;;5.31;100.00;94866.34;10346047;28;20026;-75
2022/01/07 11:36:37;;;;;;;17.38;7.93;;;;;;;5.25;100.00;94859.31;10346012;28;20049;-75
2022/01/07 11:41:47;;;;;;;15.43;8.20;;;;;;;5.43;100.00;94861.00;10345730;28;20041;-76
2022/01/07 11:46:47;;;;;;;19.65;7.72;;;;;;;5.49;100.00;94844.03;10345405;28;20570;-75
2022/01/07 11:51:48;;;;;;;16.55;7.18;;;;;;;5.57;100.00;94846.34;10345888;28;20120;-75
2022/01/07 11:56:49;;;;;;;16.88;7.97;;;;;;;5.57;100.00;94846.34;10345920;28;20025;-79
2022/01/07 12:01:58;;;;;;;20.38;7.68;;;;;;;5.43;100.00;94855.66;10327594;28;20627;-74
2022/01/07 12:07:01;;;;;;;13.18;6.43;;;;;;;5.45;96.98;94845.56;10362500;28;20042;-79
2022/01/07 12:12:06;;;;;;;16.70;7.13;;;;;;;5.58;93.80;94841.78;10343969;28;20064;-78
2022/01/07 12:17:15;;;;;;;14.32;7.15;;;;;;;5.55;97.37;94835.09;10344355;28;20372;-75
2022/01/07 12:22:17;;;;;;;17.42;7.03;;;;;;;5.71;96.70;94838.06;10344378;28;20480;-79
2022/01/07 12:27:20;;;;;;;13.52;7.80;;;;;;;5.44;95.85;94835.94;10345136;28;20034;-81
2022/01/07 12:32:29;;;;;;;13.18;6.90;;;;;;;5.42;96.34;94852.19;10328242;28;20034;-78
2022/01/07 12:37:30;;;;;;;16.10;7.80;;;;;;;5.52;100.00;94837.44;10343621;28;20487;-74
2022/01/07 12:42:38;;;;;;;15.73;7.47;;;;;;;5.69;99.64;94837.47;10344151;28;20506;-80
2022/01/07 12:47:38;;;;;;;13.87;7.07;;;;;;;5.81;96.07;94830.22;10343984;28;20034;-74
2022/01/07 12:52:41;;;;;;;22.35;9.52;;;;;;;5.92;97.85;94833.88;10360857;28;20080;-78
2022/01/07 12:57:46;;;;;;;17.05;8.20;;;;;;;5.89;97.41;94837.00;10344209;28;20100;-75
2022/01/07 13:02:54;;;;;;;21.08;9.38;;;;;;;5.90;99.16;94820.78;10343242;28;20585;-77
2022/01/07 13:08:00;;;;;;;16.40;8.27;;;;;;;6.01;95.34;94826.31;10343376;28;20034;-73
2022/01/07 13:13:07;;;;;;;22.17;9.77;;;;;;;6.00;95.14;94820.16;10360255;28;20116;-78
2022/01/07 13:18:16;;;;;;;21.30;9.87;;;;;;;5.80;98.82;94832.09;10359357;28;20038;-75
2022/01/07 13:23:18;;;;;;;19.70;9.77;;;;;;;5.77;98.00;94821.88;10326301;28;20277;-82
2022/01/07 13:28:32;;;;;;;25.30;10.02;;;;;;;5.62;98.54;94822.44;10359158;28;20072;-74
2022/01/07 13:33:34;;;;;;;21.25;10.50;;;;;;;5.61;100.00;94827.97;10343994;28;20518;-75
2022/01/07 13:38:37;;;;;;;28.45;9.50;;;;;;;5.49;100.00;94825.38;10342479;28;20037;-75
2022/01/07 13:43:43;;;;;;;29.90;12.18;;;;;;;5.42;100.00;94828.19;10359200;28;20034;-74
2022/01/07 13:48:50;;;;;;;25.40;10.95;;;;;;;5.56;100.00;94835.91;10359956;28;20033;-76
2022/01/07 13:54:08;;;;;;;19.77;10.13;;;;;;;5.57;99.27;94830.34;10341332;28;20034;-74
2022/01/07 13:59:10;;;;;;;16.50;8.02;;;;;;;5.62;93.77;94827.78;10341369;28;20179;-75
2022/01/07 14:04:11;;;;;;;16.50;8.02;;;;;;;5.51;93.38;94820.59;10360385;28;20420;-75
2022/01/07 14:09:14;;;;;;;21.52;10.40;;;;;;;5.34;94.99;94827.78;10358119;28;20038;-75
2022/01/07 14:14:16;;;;;;;22.50;11.15;;;;;;;5.26;97.86;94823.63;10343541;28;20461;-72
2022/01/07 14:19:18;;;;;;;23.98;10.73;;;;;;;5.17;100.00;94825.84;10325244;28;20321;-73
2022/01/07 14:24:19;;;;;;;20.85;8.85;;;;;;;5.07;100.00;94823.78;10368363;28;20033;-74
2022/01/07 14:29:19;;;;;;;20.38;9.30;;;;;;;4.99;100.00;94826.03;10363746;28;20018;-75
2022/01/07 14:34:20;;;;;;;24.30;10.88;;;;;;;4.85;100.00;94823.63;10348565;28;20041;-74
2022/01/07 14:39:20;;;;;;;30.55;13.45;;;;;;;4.81;100.00;94821.66;10347638;28;20030;-74
2022/01/07 14:44:21;;;;;;;39.43;14.07;;;;;;;4.41;100.00;94818.69;10348053;28;20034;-73
2022/01/07 14:49:21;;;;;;;28.95;12.68;;;;;;;4.16;100.00;94818.09;10347846;28;20276;-78
2022/01/07 14:54:21;;;;;;;29.13;11.85;;;;;;;3.96;100.00;94810.47;10347390;28;20084;-74
2022/01/07 14:59:22;;;;;;;25.85;11.80;;;;;;;3.83;100.00;94812.28;10347048;28;20113;-74
2022/01/07 15:04:22;;;;;;;27.85;11.13;;;;;;;3.73;100.00;94817.38;10298405;28;20050;-74
2022/01/07 15:09:23;;;;;;;29.88;11.82;;;;;;;3.78;100.00;94814.81;10282081;28;20058;-78
2022/01/07 15:14:23;;;;;;;24.20;10.57;;;;;;;3.57;100.00;94824.13;10282163;28;20050;-75
2022/01/07 15:19:27;;;;;;;17.50;10.15;;;;;;;3.50;100.00;94821.59;10282096;28;20418;-75
2022/01/07 15:24:29;;;;;;;21.52;9.77;;;;;;;3.39;100.00;94820.50;10281373;28;20460;-76
2022/01/07 15:29:30;;;;;;;27.35;10.23;;;;;;;3.48;100.00;94823.66;10281041;28;20433;-78
2022/01/07 15:34:30;;;;;;;29.63;13.00;;;;;;;3.51;100.00;94830.38;10283565;28;20031;-77
2022/01/07 15:39:30;;;;;;;28.15;12.02;;;;;;;3.59;100.00;94822.88;10280344;28;20458;-75
2022/01/07 15:44:31;;;;;;;112.75;39.67;;;;;;;3.57;100.00;94816.16;10282253;28;20097;-73
2022/01/07 15:49:31;;;;;;;394.40;104.43;;;;;;;3.55;100.00;94824.38;10281012;28;20493;-79
2022/01/07 15:54:32;;;;;;;43.15;18.20;;;;;;;3.67;100.00;94828.91;10279636;28;20413;-78
2022/01/07 15:59:34;;;;;;;25.75;13.25;;;;;;;3.68;100.00;94822.56;10280693;28;20489;-74
2022/01/07 16:04:34;;;;;;;29.38;13.90;;;;;;;3.63;100.00;94822.41;10280097;28;20062;-75
2022/01/07 16:09:34;;;;;;;23.15;10.82;;;;;;;3.56;100.00;94833.97;10281679;28;20106;-75
2022/01/07 16:14:35;;;;;;;19.67;9.20;;;;;;;3.44;100.00;94835.78;10294965;28;20110;-74
2022/01/07 16:19:35;;;;;;;16.30;8.10;;;;;;;3.64;100.00;94834.66;10296039;28;20205;-75
2022/01/07 16:24:36;;;;;;;19.75;8.20;;;;;;;3.79;100.00;94839.56;10256043;28;20490;-76
2022/01/07 16:29:36;;;;;;;12.93;6.80;;;;;;;3.93;100.00;94838.31;10269283;28;20461;-78
2022/01/07 16:34:37;;;;;;;17.08;7.82;;;;;;;4.09;100.00;94847.50;10295421;28;20041;-75
2022/01/07 16:39:37;;;;;;;16.67;7.38;;;;;;;4.16;100.00;94848.19;10258038;28;20035;-79
2022/01/07 16:44:38;;;;;;;17.35;7.45;;;;;;;4.17;100.00;94855.13;10276505;28;20563;-78
2022/01/07 16:49:39;;;;;;;22.42;8.32;;;;;;;3.91;100.00;94859.03;10276551;28;20350;-75
2022/01/07 16:54:39;;;;;;;18.23;8.50;;;;;;;3.85;100.00;94852.78;10293834;28;20026;-74
2022/01/07 16:59:40;;;;;;;17.20;7.85;;;;;;;3.92;100.00;94855.31;10293485;28;20493;-79
2022/01/07 17:04:41;;;;;;;18.45;9.40;;;;;;;3.95;100.00;94846.91;10294586;28;20596;-80
2022/01/07 17:09:42;;;;;;;18.30;7.95;;;;;;;3.84;100.00;94864.44;10293280;28;20035;-76
2022/01/07 17:14:43;;;;;;;22.70;11.27;;;;;;;3.78;100.00;94857.34;10278292;28;20031;-75
2022/01/07 17:19:43;;;;;;;25.15;10.57;;;;;;;3.67;100.00;94861.63;10278008;28;20038;-75
2022/01/07 17:24:44;;;;;;;16.98;8.38;;;;;;;3.55;100.00;94871.41;10276637;28;20031;-74
2022/01/07 17:29:45;;;;;;;19.85;9.20;;;;;;;3.47;100.00;94869.06;10278697;28;20450;-75
2022/01/07 17:34:51;;;;;;;16.30;9.65;;;;;;;3.48;100.00;94865.38;10282741;28;20038;-78
2022/01/07 17:39:54;;;;;;;23.38;11.13;;;;;;;3.52;100.00;94871.84;10276132;28;20031;-73
2022/01/07 17:44:54;;;;;;;16.63;8.32;;;;;;;3.39;100.00;94864.84;10260445;28;20058;-74
2022/01/07 17:49:55;;;;;;;32.75;13.27;;;;;;;3.44;100.00;94872.97;10277033;28;20683;-75
2022/01/07 17:54:55;;;;;;;24.25;12.68;;;;;;;3.27;100.00;94885.25;10275821;28;20037;-74
2022/01/07 17:59:56;;;;;;;22.55;10.95;;;;;;;3.21;100.00;94877.13;10275875;28;20186;-73
2022/01/07 18:04:57;;;;;;;28.55;13.25;;;;;;;3.24;100.00;94878.53;10284582;28;20054;-74
2022/01/07 18:09:57;;;;;;;24.65;11.63;;;;;;;3.28;100.00;94878.88;10284652;28;20493;-73
2022/01/07 18:14:58;;;;;;;21.27;11.65;;;;;;;3.36;100.00;94875.94;10283975;28;20409;-73
2022/01/07 18:19:59;;;;;;;14.20;9.25;;;;;;;3.49;100.00;94875.75;10283893;28;20031;-75
2022/01/07 18:24:59;;;;;;;20.02;9.88;;;;;;;3.32;100.00;94880.06;10284807;28;20035;-72
2022/01/07 18:30:00;;;;;;;15.40;9.35;;;;;;;3.37;100.00;94882.88;10283494;28;20106;-77
2022/01/07 18:35:01;;;;;;;18.65;10.10;;;;;;;3.28;100.00;94878.88;10283723;28;20034;-74
2022/01/07 18:40:02;;;;;;;18.75;9.90;;;;;;;3.26;100.00;94879.13;10283365;28;20858;-76
2022/01/07 18:45:03;;;;;;;16.58;9.02;;;;;;;3.17;100.00;94875.97;10283075;28;20027;-77
2022/01/07 18:50:06;;;;;;;15.30;8.50;;;;;;;3.20;100.00;94866.75;10287170;28;20027;-75
2022/01/07 18:55:07;;;;;;;14.63;8.02;;;;;;;3.14;100.00;94873.75;10283403;28;20054;-78
2022/01/07 19:00:12;;;;;;;13.82;7.88;;;;;;;3.14;100.00;94878.25;10286455;28;20121;-74
2022/01/07 19:05:13;;;;;;;16.95;9.00;;;;;;;3.17;100.00;94877.81;10348456;28;20497;-76
2022/01/07 19:10:15;;;;;;;11.75;7.57;;;;;;;3.18;100.00;94890.03;10348547;28;20033;-73
2022/01/07 19:15:16;;;;;;;13.45;7.30;;;;;;;3.19;100.00;94883.72;10362821;28;20040;-75
2022/01/07 19:20:16;;;;;;;12.60;7.82;;;;;;;3.15;100.00;94877.22;10364882;28;20080;-78
2022/01/07 19:25:18;;;;;;;13.80;7.50;;;;;;;3.09;100.00;94881.56;10346409;28;20029;-79
2022/01/07 19:30:19;;;;;;;12.52;7.25;;;;;;;3.04;100.00;94878.75;10320688;28;20038;-75
2022/01/07 19:35:19;;;;;;;16.48;7.65;;;;;;;3.07;100.00;94873.84;10359483;28;20467;-78
2022/01/07 19:40:20;;;;;;;12.32;6.93;;;;;;;3.09;100.00;94857.69;10363883;28;20084;-74
2022/01/07 19:45:21;;;;;;;9.82;6.35;;;;;;;3.11;100.00;94863.56;10362172;28;20034;-79
2022/01/07 19:50:21;;;;;;;13.15;6.90;;;;;;;3.09;100.00;94863.00;10344152;28;20026;-74
2022/01/07 19:55:22;;;;;;;13.07;8.25;;;;;;;3.04;100.00;94857.53;10330012;28;20025;-76
2022/01/07 20:00:23;;;;;;;15.25;7.65;;;;;;;3.03;100.00;94863.88;10361674;28;20121;-75
2022/01/07 20:05:23;;;;;;;9.63;5.93;;;;;;;3.07;100.00;94851.78;10361640;28;20103;-75
2022/01/07 20:10:24;;;;;;;11.15;7.53;;;;;;;3.14;100.00;94847.22;10361781;28;20117;-74
2022/01/07 20:15:26;;;;;;;12.32;8.20;;;;;;;3.06;100.00;94856.28;10359836;28;20444;-74
2022/01/07 20:20:26;;;;;;;14.13;7.18;;;;;;;3.05;100.00;94851.19;10343257;28;20065;-73
2022/01/07 20:25:27;;;;;;;13.02;8.70;;;;;;;3.11;100.00;94855.59;10343029;28;20488;-76
2022/01/07 20:30:27;;;;;;;12.27;6.38;;;;;;;3.12;100.00;94862.53;10341688;28;20026;-73
2022/01/07 20:35:28;;;;;;;11.52;7.93;;;;;;;3.06;100.00;94856.28;10336027;28;20030;-76
2022/01/07 20:40:30;;;;;;;18.23;8.82;;;;;;;2.98;100.00;94853.91;10357815;28;20116;-76
2022/01/07 20:45:30;;;;;;;16.20;8.18;;;;;;;2.94;100.00;94863.34;10399916;28;20175;-76
2022/01/07 20:50:31;;;;;;;13.95;8.80;;;;;;;3.01;100.00;94852.66;10393132;28;20041;-74
2022/01/07 20:55:31;;;;;;;17.23;9.38;;;;;;;2.98;100.00;94858.44;10342454;28;20076;-75
2022/01/07 21:00:32;;;;;;;12.70;9.05;;;;;;;3.00;100.00;94845.72;10360557;28;20113;-73
2022/01/07 21:05:33;;;;;;;15.20;9.20;;;;;;;2.83;100.00;94838.38;10359454;28;20053;-74
2022/01/07 21:10:34;;;;;;;15.48;8.85;;;;;;;2.80;100.00;94851.28;10360661;28;20025;-75
2022/01/07 21:15:34;;;;;;;17.63;9.23;;;;;;;2.62;100.00;94852.09;10326064;28;20083;-74
2022/01/07 21:20:35;;;;;;;16.17;10.15;;;;;;;2.60;100.00;94841.69;10358891;28;20472;-75
2022/01/07 21:25:37;;;;;;;18.50;10.55;;;;;;;2.43;100.00;94846.75;10341502;28;20030;-74
2022/01/07 21:30:38;;;;;;;23.70;9.35;;;;;;;2.43;100.00;94849.41;10341514;28;20106;-74
2022/01/07 21:35:39;;;;;;;16.83;10.00;;;;;;;2.52;100.00;94844.63;10358631;28;20029;-79
2022/01/07 21:40:39;;;;;;;17.10;10.68;;;;;;;2.57;100.00;94842.13;10341288;28;20029;-76
2022/01/07 21:45:40;;;;;;;16.13;9.02;;;;;;;2.50;100.00;94844.84;10359343;28;20042;-72
2022/01/07 21:50:41;;;;;;;26.65;10.23;;;;;;;2.59;100.00;94839.25;10340401;28;20030;-74
2022/01/07 21:55:42;;;;;;;24.45;10.20;;;;;;;2.57;100.00;94828.88;10340693;28;20029;-74
2022/01/07 22:00:44;;;;;;;18.70;9.82;;;;;;;2.62;100.00;94831.66;10357602;28;20127;-74
2022/01/07 22:05:45;;;;;;;17.35;9.98;;;;;;;2.66;100.00;94832.03;10356438;28;20111;-76
2022/01/07 22:10:47;;;;;;;20.38;10.50;;;;;;;2.78;100.00;94832.91;10324604;28;20053;-73
2022/01/07 22:15:54;;;;;;;22.02;10.13;;;;;;;2.90;100.00;94831.16;10357214;28;20079;-74
2022/01/07 22:20:55;;;;;;;20.57;9.60;;;;;;;2.93;100.00;94821.09;10345577;28;20052;-73
2022/01/07 22:25:55;;;;;;;19.75;10.73;;;;;;;2.91;100.00;94824.78;10398033;28;20033;-74
2022/01/07 22:30:56;;;;;;;18.10;9.85;;;;;;;2.91;100.00;94832.75;10378328;28;20025;-75
2022/01/07 22:35:56;;;;;;;15.15;8.98;;;;;;;2.83;100.00;94813.66;10356443;28;20030;-73
2022/01/07 22:40:57;;;;;;;14.93;7.88;;;;;;;2.91;100.00;94814.16;10356743;28;20445;-76
2022/01/07 22:46:02;;;;;;;13.43;6.97;;;;;;;2.91;100.00;94818.69;10357756;28;20018;-72
2022/01/07 22:51:03;;;;;;;13.73;8.10;;;;;;;2.88;100.00;94811.97;10363507;28;20511;-73
2022/01/07 22:56:03;;;;;;;9.30;5.95;;;;;;;2.83;100.00;94803.88;10362110;28;20095;-75
2022/01/07 23:01:04;;;;;;;11.52;6.28;;;;;;;2.73;100.00;94798.28;10346532;28;20026;-73
2022/01/07 23:06:04;;;;;;;8.70;5.88;;;;;;;2.68;100.00;94814.03;10347438;28;20046;-75
2022/01/07 23:11:05;;;;;;;8.93;6.05;;;;;;;2.71;100.00;94797.69;10363247;28;20559;-75
2022/01/07 23:16:06;;;;;;;9.48;5.05;;;;;;;2.62;100.00;94797.16;10362306;28;20088;-74
2022/01/07 23:21:08;;;;;;;11.70;4.65;;;;;;;2.67;100.00;94801.81;10346237;28;20504;-74